Time;durP1;ratioP1;P1;durP2;ratioP2;P2;SDS_P1;SDS_P2;PMS_P1;PMS_P2;Temp;Humidity;BMP_temperature;BMP_pressure;BME280_temperature;BME280_humidity;BME280_pressure;Samples;Min_cycle;Max_cycle;Signal;HPM_P1;HPM_P2
2022/10/31 00:01:21;;;;;;;22.57;14.40;;;15.60;82.20;;;;;;5003928;28;20208;-67
2022/10/31 00:03:48;;;;;;;19.10;14.37;;;15.60;82.20;;;;;;5001449;28;20265;-67
2022/10/31 00:06:18;;;;;;;25.33;14.50;;;15.60;82.10;;;;;;5005161;28;20274;-67
2022/10/31 00:08:46;;;;;;;19.30;13.53;;;15.60;82.20;;;;;;5000352;28;20204;-67
2022/10/31 00:11:13;;;;;;;20.90;13.40;;;15.60;82.30;;;;;;5004349;28;20254;-67
2022/10/31 00:13:41;;;;;;;21.10;13.97;;;15.50;82.30;;;;;;5001669;28;20261;-67
2022/10/31 00:16:19;;;;;;;22.07;13.70;;;15.50;82.30;;;;;;5002728;28;20528;-67
2022/10/31 00:18:55;;;;;;;26.00;14.27;;;15.50;82.30;;;;;;5004290;28;20207;-67
2022/10/31 00:21:23;;;;;;;19.10;13.73;;;15.50;82.20;;;;;;5001856;28;20204;-67
2022/10/31 00:23:50;;;;;;;21.63;14.50;;;15.40;82.10;;;;;;5000211;28;20247;-67
2022/10/31 00:26:17;;;;;;;18.40;13.30;;;15.40;81.80;;;;;;5004552;28;20208;-67
2022/10/31 00:28:44;;;;;;;21.67;14.30;;;15.30;81.70;;;;;;5002432;28;20204;-67
2022/10/31 00:31:13;;;;;;;18.90;13.83;;;15.30;81.70;;;;;;5004797;28;20207;-67
2022/10/31 00:33:41;;;;;;;23.80;14.07;;;15.20;82.00;;;;;;5002820;28;20208;-67
2022/10/31 00:36:11;;;;;;;20.57;13.80;;;15.20;82.20;;;;;;5001376;28;20536;-67
2022/10/31 00:38:41;;;;;;;19.53;13.37;;;15.20;82.30;;;;;;4996430;28;20339;-67
2022/10/31 00:41:08;;;;;;;23.33;14.50;;;15.10;82.20;;;;;;5008264;28;20209;-68
2022/10/31 00:43:38;;;;;;;23.87;15.17;;;15.10;82.20;;;;;;4999866;28;20546;-68
2022/10/31 00:46:05;;;;;;;20.17;14.10;;;15.10;82.20;;;;;;5000096;28;20218;-68
2022/10/31 00:48:32;;;;;;;24.90;14.63;;;15.00;82.30;;;;;;5010837;28;20203;-68
2022/10/31 00:50:59;;;;;;;19.43;14.63;;;15.00;82.50;;;;;;5017113;28;20580;-68
2022/10/31 00:53:26;;;;;;;20.67;13.77;;;14.90;82.70;;;;;;5003268;28;20221;-68
2022/10/31 00:55:53;;;;;;;18.60;13.93;;;15.00;82.90;;;;;;5006829;28;20601;-68
2022/10/31 00:58:20;;;;;;;20.70;14.33;;;14.90;83.00;;;;;;5009146;28;20641;-66
2022/10/31 01:00:54;;;;;;;21.10;13.50;;;14.90;83.10;;;;;;5009102;28;20201;-67
2022/10/31 01:03:33;;;;;;;21.93;13.80;;;14.90;83.20;;;;;;5009177;28;20200;-67
2022/10/31 01:06:00;;;;;;;22.17;13.13;;;14.90;83.20;;;;;;5003702;28;20234;-68
2022/10/31 01:08:28;;;;;;;18.60;13.33;;;14.90;83.30;;;;;;4999308;28;20273;-68
2022/10/31 01:11:06;;;;;;;19.57;12.27;;;14.80;83.30;;;;;;5005261;28;20314;-68
2022/10/31 01:13:35;;;;;;;17.73;11.37;;;14.80;83.40;;;;;;5004319;28;20215;-67
2022/10/31 01:16:03;;;;;;;19.03;12.47;;;14.90;83.50;;;;;;5000472;28;20571;-67
2022/10/31 01:18:32;;;;;;;21.00;14.00;;;14.90;83.60;;;;;;5005226;28;20214;-67
2022/10/31 01:21:13;;;;;;;16.37;12.20;;;14.80;83.50;;;;;;5010240;28;20211;-67
2022/10/31 01:23:41;;;;;;;19.43;12.97;;;14.80;83.60;;;;;;5004619;28;20245;-68
2022/10/31 01:26:20;;;;;;;20.67;12.57;;;14.80;83.60;;;;;;5017525;28;20227;-68
2022/10/31 01:28:48;;;;;;;18.80;12.77;;;14.80;83.60;;;;;;5009787;28;20208;-68
2022/10/31 01:31:16;;;;;;;20.67;13.10;;;14.80;83.60;;;;;;5010623;28;20206;-68
2022/10/31 01:33:44;;;;;;;17.37;12.53;;;14.80;83.40;;;;;;5007941;28;20213;-68
2022/10/31 01:36:23;;;;;;;18.70;11.87;;;14.70;83.10;;;;;;5010737;28;20218;-68
2022/10/31 01:38:52;;;;;;;22.00;13.10;;;14.70;83.10;;;;;;5002842;28;20211;-68
2022/10/31 01:41:23;;;;;;;19.27;13.43;;;14.70;83.20;;;;;;5007080;28;20207;-68
2022/10/31 01:43:52;;;;;;;18.90;12.67;;;14.70;83.20;;;;;;5011669;28;20265;-67
2022/10/31 01:46:27;;;;;;;20.70;12.30;;;14.60;83.10;;;;;;5005621;28;20282;-67
2022/10/31 01:48:57;;;;;;;20.17;12.43;;;14.60;83.10;;;;;;5012582;28;20202;-67
2022/10/31 01:51:28;;;;;;;18.77;11.97;;;14.50;83.10;;;;;;5014325;28;20646;-67
2022/10/31 01:53:59;;;;;;;19.83;11.93;;;14.50;83.30;;;;;;5020719;28;20200;-67
2022/10/31 01:56:26;;;;;;;19.43;12.73;;;14.50;83.50;;;;;;5007927;28;20202;-68
2022/10/31 01:58:55;;;;;;;21.03;12.73;;;14.40;83.60;;;;;;5006959;28;20625;-68
2022/10/31 02:01:23;;;;;;;16.37;11.40;;;14.40;83.80;;;;;;5014752;28;20207;-68
2022/10/31 02:03:50;;;;;;;17.63;11.80;;;14.40;84.00;;;;;;5006975;28;20207;-68
2022/10/31 02:06:39;;;;;;;14.53;11.10;;;14.40;84.00;;;;;;5008927;28;20218;-68
2022/10/31 02:09:06;;;;;;;18.43;11.93;;;14.30;84.00;;;;;;5003463;28;20556;-68
2022/10/31 02:11:35;;;;;;;17.13;10.57;;;14.30;83.90;;;;;;5013159;28;20273;-68
2022/10/31 02:14:03;;;;;;;15.73;11.50;;;14.30;83.90;;;;;;5005243;28;20237;-68
2022/10/31 02:16:30;;;;;;;14.07;10.70;;;14.20;83.90;;;;;;5001315;28;20955;-68
2022/10/31 02:18:57;;;;;;;18.10;11.20;;;14.20;83.90;;;;;;5014758;28;20205;-68
2022/10/31 02:21:58;;;;;;;14.37;10.43;;;14.10;83.90;;;;;;5003285;28;20207;-68
2022/10/31 02:24:31;;;;;;;15.03;11.30;;;14.10;84.00;;;;;;5003148;28;20215;-68
2022/10/31 02:27:24;;;;;;;14.83;11.23;;;14.10;84.00;;;;;;5014069;28;20203;-67
2022/10/31 02:30:17;;;;;;;13.70;10.57;;;14.00;84.20;;;;;;5005005;28;20549;-68
2022/10/31 02:33:05;;;;;;;15.60;11.47;;;13.90;84.20;;;;;;5006875;28;20217;-68
2022/10/31 02:35:46;;;;;;;18.40;11.03;;;13.90;84.50;;;;;;5014099;28;20297;-67
2022/10/31 02:38:46;;;;;;;13.10;10.57;;;13.90;84.60;;;;;;5002571;28;20229;-67
2022/10/31 02:41:42;;;;;;;14.93;10.37;;;13.90;84.70;;;;;;5029233;28;20218;-67
2022/10/31 02:44:13;;;;;;;15.50;10.53;;;13.90;84.50;;;;;;5004240;28;20240;-67
2022/10/31 02:47:03;;;;;;;15.53;10.33;;;13.90;84.60;;;;;;5007509;28;20279;-67
2022/10/31 02:49:53;;;;;;;19.00;11.73;;;13.90;84.70;;;;;;5003025;28;20239;-67
2022/10/31 02:52:24;;;;;;;16.93;11.07;;;13.90;84.60;;;;;;5002951;28;20212;-68
2022/10/31 02:54:51;;;;;;;21.50;10.40;;;13.90;84.60;;;;;;5005462;28;20205;-68
2022/10/31 02:57:48;;;;;;;14.43;10.30;;;13.90;84.60;;;;;;5004775;28;20233;-68
2022/10/31 03:00:15;;;;;;;16.67;10.70;;;13.90;84.80;;;;;;5002511;28;20264;-68
2022/10/31 03:02:51;;;;;;;13.97;9.93;;;13.80;84.70;;;;;;5012375;28;20212;-68
2022/10/31 03:05:31;;;;;;;22.10;10.90;;;13.80;84.80;;;;;;5008869;28;20218;-68
2022/10/31 03:08:24;;;;;;;16.50;10.30;;;13.80;84.80;;;;;;5018346;28;20207;-68
2022/10/31 03:10:57;;;;;;;11.77;9.27;;;13.80;85.10;;;;;;5005537;28;20211;-68
2022/10/31 03:13:42;;;;;;;20.80;11.63;;;13.80;85.10;;;;;;5006894;28;20207;-68
2022/10/31 03:16:27;;;;;;;16.83;9.70;;;13.80;85.00;;;;;;5011814;28;20556;-68
2022/10/31 03:19:08;;;;;;;16.47;10.10;;;13.70;84.80;;;;;;5012148;28;20589;-68
2022/10/31 03:21:45;;;;;;;16.57;10.60;;;13.80;85.00;;;;;;5004182;28;20215;-68
2022/10/31 03:24:14;;;;;;;16.03;9.57;;;13.70;85.00;;;;;;5002388;28;20233;-68
2022/10/31 03:26:48;;;;;;;18.97;9.40;;;13.70;85.20;;;;;;5010944;28;20236;-68
2022/10/31 03:29:19;;;;;;;17.93;10.00;;;13.70;85.20;;;;;;5007819;28;20547;-68
2022/10/31 03:31:59;;;;;;;18.87;9.47;;;13.70;85.10;;;;;;5018679;28;20226;-68
2022/10/31 03:34:28;;;;;;;17.13;9.57;;;13.60;85.00;;;;;;5021128;28;20219;-68
2022/10/31 03:37:00;;;;;;;15.40;10.17;;;13.60;85.00;;;;;;5002590;28;20203;-68
2022/10/31 03:39:29;;;;;;;12.63;9.50;;;13.60;85.00;;;;;;5009244;28;20209;-68
2022/10/31 03:42:07;;;;;;;15.43;10.30;;;13.60;85.20;;;;;;5003585;28;20240;-68
2022/10/31 03:44:35;;;;;;;15.33;9.87;;;13.60;85.20;;;;;;5003353;28;20329;-68
2022/10/31 03:47:04;;;;;;;14.17;10.57;;;13.50;85.10;;;;;;5006885;28;20195;-68
2022/10/31 03:49:32;;;;;;;12.80;9.87;;;13.50;84.90;;;;;;5006928;28;20237;-68
2022/10/31 03:52:28;;;;;;;19.80;10.73;;;13.50;84.90;;;;;;5009536;28;20211;-68
2022/10/31 03:55:05;;;;;;;19.83;11.03;;;13.60;85.20;;;;;;5010281;28;20223;-68
2022/10/31 03:57:49;;;;;;;13.17;10.37;;;13.60;85.20;;;;;;5002496;28;20223;-68
2022/10/31 04:00:16;;;;;;;22.60;10.63;;;13.60;85.20;;;;;;5032350;28;20219;-69
2022/10/31 04:03:06;;;;;;;17.53;10.37;;;13.50;85.10;;;;;;5003617;28;20225;-68
2022/10/31 04:05:36;;;;;;;17.17;10.03;;;13.60;85.20;;;;;;5011408;28;20270;-68
2022/10/31 04:08:10;;;;;;;16.90;9.50;;;13.60;85.20;;;;;;4999798;28;21037;-68
2022/10/31 04:10:38;;;;;;;15.33;9.97;;;13.60;85.30;;;;;;5003679;28;20206;-68
2022/10/31 04:13:09;;;;;;;12.80;9.20;;;13.60;85.40;;;;;;5003440;28;20535;-68
2022/10/31 04:15:46;;;;;;;13.50;8.43;;;13.60;85.50;;;;;;5006398;28;20302;-68
2022/10/31 04:18:14;;;;;;;13.10;9.20;;;13.60;85.50;;;;;;5035491;28;20202;-69
2022/10/31 04:20:41;;;;;;;14.13;9.13;;;13.60;85.50;;;;;;5005792;28;20644;-69
2022/10/31 04:23:25;;;;;;;12.13;8.83;;;13.60;85.50;;;;;;5034241;28;20315;-69
2022/10/31 04:25:53;;;;;;;12.60;8.10;;;13.60;85.50;;;;;;5004320;28;20221;-69
2022/10/31 04:28:21;;;;;;;14.33;8.50;;;13.60;85.40;;;;;;5007843;28;20296;-69
2022/10/31 04:30:48;;;;;;;12.83;8.30;;;13.60;85.40;;;;;;5001796;28;20209;-69
2022/10/31 04:33:16;;;;;;;9.93;7.93;;;13.50;85.20;;;;;;4985185;28;20223;-69
2022/10/31 04:35:45;;;;;;;11.77;7.57;;;13.60;85.30;;;;;;5009420;28;20205;-68
2022/10/31 04:38:12;;;;;;;9.63;7.10;;;13.60;85.30;;;;;;5014192;28;20268;-68
2022/10/31 04:40:40;;;;;;;15.97;8.10;;;13.50;85.30;;;;;;5001984;28;20248;-68
2022/10/31 04:43:30;;;;;;;14.47;8.67;;;13.50;85.30;;;;;;5004542;28;20213;-68
2022/10/31 04:45:59;;;;;;;12.63;7.43;;;13.50;85.10;;;;;;5002404;28;20235;-68
2022/10/31 04:48:27;;;;;;;13.80;7.77;;;13.50;85.10;;;;;;5003808;28;20218;-68
2022/10/31 04:50:59;;;;;;;9.67;7.47;;;13.50;85.10;;;;;;5013839;28;20217;-69
2022/10/31 04:53:27;;;;;;;15.97;7.90;;;13.40;85.00;;;;;;5006662;28;20199;-69
2022/10/31 04:56:23;;;;;;;9.10;6.97;;;13.40;85.00;;;;;;5017780;28;20224;-69
2022/10/31 04:58:56;;;;;;;13.67;8.53;;;13.40;84.70;;;;;;5003749;28;20188;-69
2022/10/31 05:01:24;;;;;;;10.80;7.50;;;13.40;84.60;;;;;;5008457;28;20648;-69
2022/10/31 05:03:52;;;;;;;12.60;8.13;;;13.30;84.60;;;;;;5009094;28;20248;-69
2022/10/31 05:06:19;;;;;;;11.00;7.63;;;13.30;84.50;;;;;;5010255;28;20679;-69
2022/10/31 05:08:46;;;;;;;14.87;8.60;;;13.30;84.60;;;;;;5005461;28;20522;-69
2022/10/31 05:11:14;;;;;;;14.40;7.70;;;13.30;84.60;;;;;;5013816;28;20239;-69
2022/10/31 05:13:43;;;;;;;11.90;7.60;;;13.30;84.60;;;;;;5004585;28;20648;-69
2022/10/31 05:16:13;;;;;;;11.27;8.40;;;13.30;84.80;;;;;;5001610;28;20215;-69
2022/10/31 05:19:15;;;;;;;13.43;8.03;;;13.20;84.90;;;;;;5015687;28;20734;-69
2022/10/31 05:22:05;;;;;;;15.53;9.20;;;13.20;84.90;;;;;;4986760;28;20239;-69
2022/10/31 05:24:32;;;;;;;9.70;6.83;;;13.20;85.20;;;;;;5000393;28;20204;-69
2022/10/31 05:27:00;;;;;;;12.87;7.67;;;13.20;85.20;;;;;;5000645;28;20220;-69
2022/10/31 05:29:26;;;;;;;14.53;7.17;;;13.20;85.30;;;;;;5010526;28;20216;-69
2022/10/31 05:31:53;;;;;;;11.67;7.67;;;13.20;85.40;;;;;;5007042;28;20229;-69
2022/10/31 05:34:39;;;;;;;10.90;7.23;;;13.20;85.40;;;;;;5004186;28;20321;-69
2022/10/31 05:37:29;;;;;;;10.43;7.40;;;13.20;85.40;;;;;;5002589;28;20229;-69
2022/10/31 05:39:56;;;;;;;11.20;8.13;;;13.10;85.30;;;;;;5005191;28;20640;-69
2022/10/31 05:42:25;;;;;;;18.70;7.70;;;13.10;85.30;;;;;;5009262;28;20215;-69
2022/10/31 05:44:52;;;;;;;15.27;7.17;;;13.10;85.30;;;;;;5005813;28;20210;-69
2022/10/31 05:47:24;;;;;;;11.73;7.40;;;13.10;85.40;;;;;;5009138;28;20238;-69
2022/10/31 05:50:09;;;;;;;10.60;7.10;;;13.10;85.30;;;;;;5002165;28;20205;-69
2022/10/31 05:53:05;;;;;;;11.83;7.23;;;13.10;85.20;;;;;;4999897;28;20218;-69
2022/10/31 05:55:37;;;;;;;13.00;6.87;;;13.00;85.10;;;;;;5009085;28;20668;-69
2022/10/31 05:58:10;;;;;;;14.20;6.53;;;13.00;85.10;;;;;;5010719;28;20205;-68
2022/10/31 06:00:40;;;;;;;12.33;6.73;;;13.00;85.10;;;;;;5006831;28;20216;-68
2022/10/31 06:03:09;;;;;;;11.77;7.23;;;13.00;85.00;;;;;;5031497;28;20594;-68
2022/10/31 06:06:06;;;;;;;13.47;6.70;;;13.00;84.90;;;;;;4997837;28;20323;-69
2022/10/31 06:08:40;;;;;;;10.83;6.83;;;13.10;84.90;;;;;;5018110;28;20248;-69
2022/10/31 06:11:13;;;;;;;10.90;6.90;;;13.10;84.90;;;;;;5007079;28;20210;-69
2022/10/31 06:13:59;;;;;;;8.87;6.10;;;13.10;84.90;;;;;;5003405;28;20297;-68
2022/10/31 06:16:33;;;;;;;14.10;7.70;;;13.10;84.90;;;;;;5015545;28;20232;-69
2022/10/31 06:19:18;;;;;;;11.50;7.00;;;13.10;84.90;;;;;;5007453;28;20215;-69
2022/10/31 06:21:45;;;;;;;14.47;6.63;;;13.10;84.90;;;;;;5002499;28;20277;-69
2022/10/31 06:24:13;;;;;;;11.17;6.27;;;13.20;84.90;;;;;;5003196;28;20245;-68
2022/10/31 06:27:00;;;;;;;10.43;6.80;;;13.20;84.90;;;;;;5008880;28;20256;-68
2022/10/31 06:29:27;;;;;;;9.90;5.97;;;13.30;85.00;;;;;;5012850;28;20211;-68
2022/10/31 06:32:02;;;;;;;15.67;6.60;;;13.30;85.00;;;;;;5010795;28;20605;-68
2022/10/31 06:34:32;;;;;;;13.10;6.73;;;13.40;85.00;;;;;;5002694;28;20215;-68
2022/10/31 06:36:59;;;;;;;12.03;6.40;;;13.40;84.80;;;;;;5002173;28;20207;-68
2022/10/31 06:39:28;;;;;;;11.73;6.73;;;13.50;84.80;;;;;;5035260;28;20325;-68
2022/10/31 06:41:55;;;;;;;9.50;6.33;;;13.60;84.60;;;;;;4990816;28;20198;-68
2022/10/31 06:44:23;;;;;;;10.60;7.70;;;13.70;84.40;;;;;;5007490;28;20604;-68
2022/10/31 06:47:10;;;;;;;11.27;6.70;;;13.80;84.20;;;;;;5006025;28;20239;-68
2022/10/31 06:49:40;;;;;;;11.73;7.33;;;14.00;84.20;;;;;;5004957;28;20224;-69
2022/10/31 06:52:12;;;;;;;12.43;7.40;;;14.30;83.30;;;;;;5023562;28;20613;-69
2022/10/31 06:54:39;;;;;;;10.40;6.77;;;14.70;82.00;;;;;;4996258;28;20214;-69
2022/10/31 06:57:06;;;;;;;11.90;6.30;;;15.00;80.90;;;;;;5017686;28;20234;-69
2022/10/31 06:59:33;;;;;;;9.70;5.73;;;15.30;79.70;;;;;;5007707;28;20214;-68
2022/10/31 07:02:03;;;;;;;8.80;5.87;;;15.60;79.00;;;;;;5004244;28;20198;-68
2022/10/31 07:04:31;;;;;;;7.70;5.60;;;15.90;77.50;;;;;;5006225;28;20246;-68
2022/10/31 07:06:58;;;;;;;8.47;5.53;;;16.40;76.00;;;;;;5008375;28;20223;-68
2022/10/31 07:09:25;;;;;;;12.60;6.00;;;16.80;74.60;;;;;;5001698;28;20212;-68
2022/10/31 07:11:55;;;;;;;10.00;5.87;;;17.20;73.30;;;;;;5005845;28;20207;-68
2022/10/31 07:14:22;;;;;;;11.20;6.43;;;17.60;72.10;;;;;;5010106;28;20215;-68
2022/10/31 07:16:50;;;;;;;10.63;6.10;;;17.90;71.20;;;;;;5004123;28;20218;-68
2022/10/31 07:19:23;;;;;;;8.97;6.43;;;18.10;70.50;;;;;;5009589;28;20231;-68
2022/10/31 07:21:50;;;;;;;12.57;6.77;;;18.20;70.00;;;;;;5002318;28;20213;-68
2022/10/31 07:24:17;;;;;;;10.97;6.33;;;18.40;69.80;;;;;;4972463;28;20205;-68
2022/10/31 07:27:03;;;;;;;10.63;5.30;;;18.40;69.70;;;;;;4962166;28;20620;-68
2022/10/31 07:29:30;;;;;;;9.13;6.30;;;18.40;69.70;;;;;;4972372;28;20309;-68
2022/10/31 07:31:58;;;;;;;10.17;6.60;;;18.40;69.90;;;;;;4947625;28;20213;-68
2022/10/31 07:34:28;;;;;;;11.67;6.47;;;18.30;69.90;;;;;;4957052;28;20213;-68
2022/10/31 07:37:14;;;;;;;10.53;6.70;;;18.20;70.40;;;;;;4967234;28;20312;-68
2022/10/31 07:39:41;;;;;;;9.30;6.50;;;18.10;70.80;;;;;;4993734;28;20651;-68
2022/10/31 07:42:08;;;;;;;10.80;6.50;;;18.00;71.20;;;;;;4972397;28;20233;-68
2022/10/31 07:44:36;;;;;;;10.07;6.80;;;18.00;71.70;;;;;;4969515;28;20221;-69
2022/10/31 07:47:21;;;;;;;11.37;6.10;;;18.00;72.10;;;;;;4963076;28;20369;-68
2022/10/31 07:50:08;;;;;;;12.73;7.07;;;18.00;72.40;;;;;;4966366;28;20280;-68
2022/10/31 07:53:07;;;;;;;11.80;6.77;;;18.00;72.50;;;;;;4970172;28;20209;-68
2022/10/31 07:55:37;;;;;;;12.67;7.33;;;18.10;72.30;;;;;;4963222;28;20212;-68
2022/10/31 07:58:10;;;;;;;9.20;6.47;;;18.20;72.30;;;;;;4962271;28;20597;-68
2022/10/31 08:00:41;;;;;;;11.17;7.70;;;18.30;72.20;;;;;;4964436;28;20675;-68
2022/10/31 08:03:19;;;;;;;11.07;6.43;;;18.30;71.90;;;;;;4995193;28;20688;-68
2022/10/31 08:05:46;;;;;;;10.97;7.20;;;18.50;71.60;;;;;;4966845;28;20227;-68
2022/10/31 08:08:33;;;;;;;14.00;8.10;;;18.60;71.50;;;;;;4962731;28;20209;-68
2022/10/31 08:11:05;;;;;;;11.20;7.60;;;18.80;71.30;;;;;;4977655;28;20211;-68
2022/10/31 08:13:32;;;;;;;12.63;7.57;;;18.90;71.10;;;;;;4970715;28;20202;-68
2022/10/31 08:16:03;;;;;;;16.57;9.50;;;19.10;71.00;;;;;;4970944;28;20220;-68
2022/10/31 08:18:34;;;;;;;17.97;10.10;;;19.20;70.70;;;;;;4969998;28;20277;-68
2022/10/31 08:21:03;;;;;;;17.73;11.10;;;19.40;70.40;;;;;;4994616;28;20219;-68
2022/10/31 08:23:30;;;;;;;23.63;11.87;;;19.50;70.20;;;;;;4996091;28;20235;-68
2022/10/31 08:25:57;;;;;;;18.87;13.00;;;19.60;70.10;;;;;;4999530;28;20686;-69
2022/10/31 08:28:24;;;;;;;21.10;14.33;;;19.70;70.00;;;;;;5022614;28;20201;-69
2022/10/31 08:30:53;;;;;;;21.33;14.77;;;19.80;70.00;;;;;;5001245;28;20615;-68
2022/10/31 08:33:53;;;;;;;23.20;13.43;;;19.90;69.80;;;;;;5009764;28;20314;-68
2022/10/31 08:36:56;;;;;;;26.47;13.70;;;20.10;69.80;;;;;;5021404;28;20224;-68
2022/10/31 08:39:34;;;;;;;17.80;13.00;;;20.20;69.40;;;;;;5009109;28;20214;-68
2022/10/31 08:42:01;;;;;;;24.27;13.23;;;20.30;69.20;;;;;;5006519;28;20199;-69
2022/10/31 08:44:28;;;;;;;23.00;13.20;;;20.40;69.00;;;;;;5006264;28;20215;-69
2022/10/31 08:46:56;;;;;;;20.30;13.20;;;20.50;68.80;;;;;;5002339;28;20220;-68
2022/10/31 08:49:23;;;;;;;26.07;13.97;;;20.60;68.50;;;;;;5008618;28;20198;-69
2022/10/31 08:51:51;;;;;;;27.00;14.53;;;20.60;68.50;;;;;;4992766;28;20292;-68
2022/10/31 08:54:20;;;;;;;21.43;13.53;;;20.80;68.10;;;;;;5009638;28;20629;-69
2022/10/31 08:56:55;;;;;;;26.97;13.83;;;20.90;68.00;;;;;;5000092;28;20222;-69
2022/10/31 08:59:35;;;;;;;32.37;15.20;;;20.90;68.00;;;;;;5028475;28;20215;-69
2022/10/31 09:02:32;;;;;;;25.07;14.70;;;21.00;67.70;;;;;;5035623;28;20229;-69
2022/10/31 09:05:00;;;;;;;25.97;15.03;;;21.10;68.30;;;;;;4999585;28;20204;-69
2022/10/31 09:07:27;;;;;;;23.43;15.07;;;21.10;67.50;;;;;;5009798;28;20220;-69
2022/10/31 09:09:55;;;;;;;23.50;13.90;;;21.10;67.60;;;;;;5011269;28;20589;-69
2022/10/31 09:12:23;;;;;;;20.37;13.83;;;21.10;67.60;;;;;;5015224;28;20222;-69
2022/10/31 09:15:09;;;;;;;28.30;14.60;;;21.20;67.30;;;;;;5001181;28;20228;-69
2022/10/31 09:17:54;;;;;;;29.50;14.97;;;21.20;66.90;;;;;;5011564;28;20220;-68
2022/10/31 09:20:38;;;;;;;21.03;12.83;;;21.20;66.40;;;;;;5004013;28;20212;-69
2022/10/31 09:23:09;;;;;;;20.20;13.17;;;21.20;67.00;;;;;;5002165;28;20240;-68
2022/10/31 09:25:38;;;;;;;24.60;13.90;;;21.30;67.00;;;;;;5010580;28;20265;-69
2022/10/31 09:28:44;;;;;;;18.60;12.43;;;21.30;66.70;;;;;;5028842;28;20206;-69
2022/10/31 09:31:13;;;;;;;22.63;12.70;;;21.30;66.40;;;;;;5028693;28;20228;-69
2022/10/31 09:33:46;;;;;;;18.67;13.37;;;21.30;66.70;;;;;;5015606;28;20681;-68
2022/10/31 09:36:39;;;;;;;20.23;11.53;;;21.40;67.70;;;;;;5001699;28;20218;-69
2022/10/31 09:39:10;;;;;;;24.13;12.87;;;21.50;66.90;;;;;;5006589;28;20301;-69
2022/10/31 09:42:09;;;;;;;17.07;11.23;;;21.60;66.30;;;;;;5000245;28;20234;-69
2022/10/31 09:44:51;;;;;;;18.93;11.20;;;21.70;66.00;;;;;;5009640;28;20588;-69
2022/10/31 09:47:42;;;;;;;17.70;10.67;;;21.70;66.00;;;;;;5001156;28;20233;-69
2022/10/31 09:50:37;;;;;;;18.37;10.27;;;21.90;66.10;;;;;;5003045;28;20203;-69
2022/10/31 09:53:49;;;;;;;19.80;10.07;;;22.00;64.90;;;;;;5000820;28;20629;-69
2022/10/31 09:56:22;;;;;;;19.97;10.63;;;22.10;64.40;;;;;;5020563;28;20203;-69
2022/10/31 09:59:00;;;;;;;21.37;11.03;;;22.10;64.00;;;;;;5008407;28;20295;-69
2022/10/31 10:01:53;;;;;;;17.30;10.80;;;22.10;63.10;;;;;;5013462;28;20199;-69
2022/10/31 10:04:32;;;;;;;16.73;10.43;;;22.10;63.10;;;;;;5033579;28;20204;-69
2022/10/31 10:07:24;;;;;;;16.43;10.07;;;22.10;63.30;;;;;;5003931;28;20683;-69
2022/10/31 10:10:32;;;;;;;20.37;11.60;;;22.20;63.20;;;;;;5011191;28;20205;-69
2022/10/31 10:13:18;;;;;;;22.50;11.73;;;22.30;63.00;;;;;;5007927;28;20224;-69
2022/10/31 10:15:56;;;;;;;22.97;12.17;;;22.30;63.00;;;;;;5005199;28;20643;-68
2022/10/31 10:18:46;;;;;;;21.73;12.20;;;22.20;63.40;;;;;;5007486;28;20273;-68
2022/10/31 10:21:29;;;;;;;20.10;12.20;;;22.30;63.50;;;;;;5007233;28;20200;-68
2022/10/31 10:24:17;;;;;;;18.67;12.00;;;22.40;63.50;;;;;;4999862;28;20626;-68
2022/10/31 10:27:01;;;;;;;20.20;12.10;;;22.60;63.30;;;;;;5004140;28;20212;-68
2022/10/31 10:29:28;;;;;;;25.10;13.63;;;22.70;63.00;;;;;;5004005;28;20203;-68
2022/10/31 10:31:59;;;;;;;19.67;11.83;;;22.90;62.90;;;;;;5008027;28;20192;-68
2022/10/31 10:34:51;;;;;;;23.47;12.43;;;23.10;62.70;;;;;;5021077;28;20197;-68
2022/10/31 10:37:28;;;;;;;23.77;12.27;;;23.20;61.90;;;;;;5000892;28;20274;-68
2022/10/31 10:40:01;;;;;;;22.27;11.80;;;23.30;60.70;;;;;;5002153;28;20199;-68
2022/10/31 10:48:20;;;;;;;23.77;11.73;;;23.50;60.50;;;;;;5005334;28;20243;-68
2022/10/31 10:50:52;;;;;;;18.83;10.93;;;23.60;60.40;;;;;;5003412;28;20732;-68
2022/10/31 10:53:35;;;;;;;26.43;11.80;;;23.70;60.30;;;;;;5008588;28;20208;-68
2022/10/31 10:56:20;;;;;;;20.07;10.27;;;23.90;59.60;;;;;;5006809;28;20204;-68
2022/10/31 10:58:48;;;;;;;24.90;10.23;;;24.00;59.60;;;;;;5006904;28;20212;-68
2022/10/31 11:01:15;;;;;;;18.97;9.33;;;24.10;59.20;;;;;;5004164;28;20211;-68
2022/10/31 11:03:42;;;;;;;16.37;10.70;;;24.20;57.80;;;;;;5034563;28;20222;-68
2022/10/31 11:06:25;;;;;;;17.87;9.53;;;24.30;57.40;;;;;;5003718;28;20200;-68
2022/10/31 11:08:53;;;;;;;18.33;9.17;;;24.30;56.80;;;;;;5008805;28;20288;-68
2022/10/31 11:11:29;;;;;;;20.50;8.80;;;24.40;56.90;;;;;;5004301;28;20215;-68
2022/10/31 11:14:05;;;;;;;19.40;8.53;;;24.50;56.80;;;;;;5002523;28;20594;-68
2022/10/31 11:16:38;;;;;;;22.53;9.03;;;24.60;55.80;;;;;;5005242;28;20561;-68
2022/10/31 11:19:21;;;;;;;20.87;9.50;;;24.60;56.00;;;;;;5008795;28;20642;-68
2022/10/31 11:21:49;;;;;;;19.30;8.57;;;24.70;55.70;;;;;;5022235;28;20255;-68
2022/10/31 11:24:27;;;;;;;17.23;8.33;;;24.80;55.40;;;;;;5001946;28;20200;-67
2022/10/31 11:27:25;;;;;;;23.00;9.00;;;24.80;55.90;;;;;;5000804;28;20764;-67
2022/10/31 11:30:03;;;;;;;15.23;8.03;;;25.00;55.30;;;;;;5005275;28;20510;-67
2022/10/31 11:32:30;;;;;;;18.73;7.73;;;25.10;54.40;;;;;;5006095;28;20478;-67
2022/10/31 11:35:01;;;;;;;20.27;7.77;;;25.20;54.40;;;;;;5000330;28;20569;-67
2022/10/31 11:37:35;;;;;;;16.20;7.73;;;25.20;54.00;;;;;;5002418;28;20211;-67
2022/10/31 11:40:06;;;;;;;16.37;7.37;;;25.30;53.20;;;;;;5004635;28;20216;-67
2022/10/31 11:42:40;;;;;;;11.53;6.07;;;25.30;53.20;;;;;;5003654;28;20212;-68
2022/10/31 11:45:27;;;;;;;14.30;6.70;;;25.30;53.00;;;;;;5006954;28;20204;-67
2022/10/31 11:47:56;;;;;;;17.37;6.83;;;25.20;52.40;;;;;;5003008;28;20544;-67
2022/10/31 11:50:41;;;;;;;14.20;7.13;;;25.10;52.50;;;;;;5003370;28;20196;-67
2022/10/31 11:53:18;;;;;;;13.60;6.20;;;25.10;52.90;;;;;;5004246;28;20250;-67
2022/10/31 11:56:04;;;;;;;14.30;6.17;;;25.10;52.80;;;;;;5006848;28;20215;-67
2022/10/31 11:58:31;;;;;;;14.30;6.73;;;25.10;52.20;;;;;;5008041;28;20255;-68
2022/10/31 12:00:59;;;;;;;20.40;7.50;;;25.10;52.20;;;;;;4997884;28;20262;-67
2022/10/31 12:03:35;;;;;;;19.20;7.73;;;25.00;52.50;;;;;;5000797;28;20207;-68
2022/10/31 12:06:04;;;;;;;15.10;7.07;;;25.00;52.00;;;;;;5000265;28;20286;-68
2022/10/31 12:08:34;;;;;;;18.60;6.77;;;25.00;52.30;;;;;;5000122;28;20747;-68
2022/10/31 12:11:17;;;;;;;17.83;8.03;;;25.00;52.30;;;;;;5001696;28;20263;-68
2022/10/31 12:13:59;;;;;;;15.50;7.17;;;24.90;53.00;;;;;;5037586;28;20216;-68
2022/10/31 12:16:57;;;;;;;13.47;7.37;;;24.90;53.40;;;;;;5019704;28;20303;-67
2022/10/31 12:19:38;;;;;;;16.77;7.20;;;25.00;53.50;;;;;;5016972;28;20211;-67
2022/10/31 12:22:25;;;;;;;14.60;6.60;;;25.00;53.20;;;;;;5003356;28;20249;-67
2022/10/31 12:25:16;;;;;;;11.57;7.20;;;24.90;53.00;;;;;;5010018;28;20209;-67
2022/10/31 12:28:17;;;;;;;14.83;6.40;;;25.00;53.40;;;;;;5001337;28;20217;-67
2022/10/31 12:30:59;;;;;;;16.00;6.80;;;25.00;53.80;;;;;;5003128;28;20188;-67
2022/10/31 12:33:35;;;;;;;16.80;6.97;;;25.10;53.80;;;;;;5002881;28;20234;-67
2022/10/31 12:36:23;;;;;;;18.90;7.57;;;25.20;53.60;;;;;;5004805;28;20266;-67
2022/10/31 12:39:13;;;;;;;18.07;8.63;;;25.20;53.20;;;;;;5001685;28;20604;-67
2022/10/31 12:41:53;;;;;;;17.50;8.00;;;25.10;53.30;;;;;;5002825;28;20220;-67
2022/10/31 12:44:44;;;;;;;10.00;6.63;;;25.00;53.40;;;;;;5002688;28;20262;-67
2022/10/31 12:47:21;;;;;;;16.43;7.70;;;24.90;53.80;;;;;;5001015;28;20687;-67
2022/10/31 12:50:19;;;;;;;16.63;7.73;;;24.80;54.10;;;;;;5002844;28;20192;-67
2022/10/31 12:52:52;;;;;;;14.23;7.13;;;24.80;54.50;;;;;;5000354;28;20196;-68
2022/10/31 12:55:25;;;;;;;17.97;8.87;;;24.80;54.80;;;;;;5002164;28;20512;-68
2022/10/31 12:57:57;;;;;;;21.87;9.40;;;24.80;54.40;;;;;;4998170;28;20284;-68
2022/10/31 13:00:27;;;;;;;16.17;9.27;;;24.80;54.30;;;;;;5003553;28;20612;-68
2022/10/31 13:02:59;;;;;;;16.93;9.07;;;24.80;54.50;;;;;;5011260;28;20235;-68
2022/10/31 13:05:37;;;;;;;20.23;8.23;;;24.80;54.60;;;;;;5000582;28;20204;-68
2022/10/31 13:08:10;;;;;;;9.23;6.90;;;24.90;54.40;;;;;;5002393;28;20295;-68
2022/10/31 13:11:05;;;;;;;19.57;8.47;;;24.90;54.60;;;;;;5002517;28;20205;-68
2022/10/31 13:13:55;;;;;;;16.27;8.70;;;25.00;54.50;;;;;;5006438;28;20231;-68
2022/10/31 13:16:27;;;;;;;16.53;8.87;;;25.00;54.50;;;;;;5001487;28;20325;-68
2022/10/31 13:18:57;;;;;;;18.50;8.90;;;25.10;54.30;;;;;;5001668;28;20259;-68
2022/10/31 13:21:41;;;;;;;19.90;7.50;;;25.20;54.40;;;;;;5000291;28;20600;-68